createdAt,value
2024-01-19T00:02:12.520Z,102011.38
2024-01-19T00:04:41.578Z,101997.09
2024-01-19T00:07:08.338Z,101992.19
2024-01-19T00:09:35.064Z,102024.78
2024-01-19T00:12:03.906Z,101988.03
2024-01-19T00:14:32.812Z,102015.19
2024-01-19T00:16:59.662Z,102027.06
2024-01-19T00:19:33.494Z,102028.72
2024-01-19T00:22:00.266Z,102037.03
2024-01-19T00:24:26.895Z,102005.09
2024-01-19T00:26:55.581Z,102036.91
2024-01-19T00:29:23.012Z,102036.59
2024-01-19T00:31:49.807Z,102028.69
2024-01-19T00:34:17.849Z,102043.88
2024-01-19T00:36:44.634Z,102039.81
2024-01-19T00:39:11.420Z,102033.81
2024-01-19T00:41:38.155Z,102035.94
2024-01-19T00:44:09.788Z,102012.09
2024-01-19T00:46:36.428Z,102048.47
2024-01-19T00:49:03.401Z,102034.72
2024-01-19T00:51:30.218Z,102032.31
2024-01-19T00:53:59.162Z,102043.00
2024-01-19T00:56:25.871Z,102055.34
2024-01-19T00:58:52.579Z,102030.41
2024-01-19T01:01:19.399Z,102058.19
2024-01-19T01:03:46.254Z,102049.16
2024-01-19T01:06:12.977Z,102067.94
2024-01-19T01:08:39.814Z,102061.78
2024-01-19T01:11:06.984Z,102060.88
2024-01-19T01:13:34.015Z,102060.59
2024-01-19T01:16:02.226Z,102061.97
2024-01-19T01:18:29.055Z,102040.94
2024-01-19T01:20:55.796Z,102082.53
2024-01-19T01:23:22.645Z,102085.25
2024-01-19T01:25:49.622Z,102090.22
2024-01-19T01:28:16.487Z,102043.38
2024-01-19T01:30:43.468Z,102081.81
2024-01-19T01:33:10.563Z,102002.53
2024-01-19T01:35:37.533Z,102042.81
2024-01-19T01:38:05.198Z,102077.66
2024-01-19T01:40:32.158Z,102087.56
2024-01-19T01:43:01.874Z,102081.69
2024-01-19T01:45:29.264Z,102002.38
2024-01-19T01:47:59.032Z,102086.06
2024-01-19T01:50:25.901Z,102080.47
2024-01-19T01:52:56.229Z,102100.19
2024-01-19T01:55:26.409Z,102101.81
2024-01-19T01:57:55.455Z,102093.91
2024-01-19T02:00:22.709Z,102109.25
2024-01-19T02:02:49.667Z,102106.06
2024-01-19T02:05:17.202Z,102105.78
2024-01-19T02:07:44.068Z,102080.25
2024-01-19T02:10:10.980Z,102091.97
2024-01-19T02:12:38.496Z,102084.88
2024-01-19T02:15:05.480Z,102080.53
2024-01-19T02:17:32.192Z,102094.69
2024-01-19T02:19:58.929Z,102067.63
2024-01-19T02:22:25.759Z,102107.56
2024-01-19T02:24:54.868Z,102113.75
2024-01-19T02:27:21.972Z,102072.25
2024-01-19T02:29:52.169Z,102117.19
2024-01-19T02:32:21.446Z,102093.78
2024-01-19T02:34:48.212Z,102130.19
2024-01-19T02:37:17.048Z,102117.72
2024-01-19T02:39:46.346Z,102128.22
2024-01-19T02:42:13.192Z,102135.19
2024-01-19T02:44:39.848Z,102129.63
2024-01-19T02:47:08.794Z,102131.13
2024-01-19T02:49:35.532Z,102123.03
2024-01-19T02:52:02.223Z,102134.31
2024-01-19T02:54:28.816Z,102146.16
2024-01-19T02:56:57.682Z,102156.88
2024-01-19T02:59:26.478Z,102142.41
2024-01-19T03:01:53.162Z,102148.44
2024-01-19T03:04:19.790Z,102149.34
2024-01-19T03:06:46.516Z,102130.22
2024-01-19T03:09:13.215Z,102155.34
2024-01-19T03:11:39.909Z,102146.16
2024-01-19T03:14:06.590Z,102104.66
2024-01-19T03:16:33.270Z,102101.34
2024-01-19T03:19:01.784Z,102145.97
2024-01-19T03:21:28.737Z,102082.56
2024-01-19T03:23:55.512Z,102150.63
2024-01-19T03:26:22.424Z,102150.94
2024-01-19T03:28:49.086Z,102135.44
2024-01-19T03:31:15.733Z,102121.44
2024-01-19T03:33:42.554Z,102151.09
2024-01-19T03:36:09.346Z,102162.19
2024-01-19T03:38:36.044Z,102162.34
2024-01-19T03:41:02.748Z,102162.03
2024-01-19T03:43:29.370Z,102168.66
2024-01-19T03:45:58.996Z,102092.63
2024-01-19T03:48:28.244Z,102142.78
2024-01-19T03:50:55.231Z,102164.44
2024-01-19T03:53:22.043Z,102178.13
2024-01-19T03:55:49.854Z,102173.16
2024-01-19T03:58:16.558Z,102154.06
2024-01-19T04:00:46.340Z,102157.22
2024-01-19T04:03:13.188Z,102091.53
2024-01-19T04:05:40.038Z,102169.38
2024-01-19T04:08:09.137Z,102163.47
2024-01-19T04:10:38.501Z,102182.41
2024-01-19T04:13:05.169Z,102142.13
2024-01-19T04:15:32.445Z,102144.69
2024-01-19T04:17:59.445Z,102168.41
2024-01-19T04:20:28.388Z,102125.44
2024-01-19T04:22:55.093Z,102176.72
2024-01-19T04:25:24.787Z,102187.19
2024-01-19T04:27:52.249Z,102179.75
2024-01-19T04:30:18.929Z,102200.69
2024-01-19T04:32:45.686Z,102175.88
2024-01-19T04:35:12.487Z,102179.06
2024-01-19T04:37:39.306Z,102195.59
2024-01-19T04:40:06.263Z,102157.69
2024-01-19T04:42:32.939Z,102206.91
2024-01-19T04:44:59.649Z,102199.97
2024-01-19T04:47:26.431Z,102165.50
2024-01-19T04:49:53.079Z,102176.50
2024-01-19T04:52:19.692Z,102178.28
2024-01-19T04:54:48.579Z,102179.50
2024-01-19T04:57:15.214Z,102212.13
2024-01-19T04:59:41.852Z,102186.53
2024-01-19T05:02:08.538Z,102217.97
2024-01-19T05:04:35.289Z,102228.06
2024-01-19T05:07:01.989Z,102219.19
2024-01-19T05:09:36.102Z,102220.22
2024-01-19T05:12:04.997Z,102164.56
2024-01-19T05:14:32.033Z,102227.59
2024-01-19T05:17:00.973Z,102203.34
2024-01-19T05:19:29.753Z,102199.44
2024-01-19T05:21:56.876Z,102201.50
2024-01-19T05:24:23.511Z,102223.34
2024-01-19T05:26:52.569Z,102221.66
2024-01-19T05:29:22.856Z,102221.50
2024-01-19T05:31:50.150Z,102209.09
2024-01-19T05:34:19.190Z,102233.13
2024-01-19T05:36:45.898Z,102233.13
2024-01-19T05:39:14.775Z,102194.94
2024-01-19T05:41:41.488Z,102209.50
2024-01-19T05:44:08.121Z,102206.06
2024-01-19T05:46:34.822Z,102236.44
2024-01-19T05:49:04.103Z,102209.81
2024-01-19T05:51:30.768Z,102235.81
2024-01-19T05:53:57.448Z,102226.94
2024-01-19T05:56:24.196Z,102247.88
2024-01-19T05:58:50.902Z,102209.19
2024-01-19T06:01:17.678Z,102220.38
2024-01-19T06:03:44.393Z,102246.38
2024-01-19T06:06:11.245Z,102249.41
2024-01-19T06:08:38.122Z,102256.66
2024-01-19T06:11:07.388Z,102265.53
2024-01-19T06:13:34.150Z,102268.97
2024-01-19T06:16:04.468Z,102269.59
2024-01-19T06:18:31.196Z,102273.84
2024-01-19T06:21:01.879Z,102234.09
2024-01-19T06:23:28.825Z,102280.88
2024-01-19T06:25:55.517Z,102288.41
2024-01-19T06:28:22.482Z,102259.81
2024-01-19T06:30:49.145Z,102298.81
2024-01-19T06:33:17.940Z,102290.97
2024-01-19T06:35:45.148Z,102290.66
2024-01-19T06:38:11.926Z,102269.75
2024-01-19T06:40:38.571Z,102283.31
2024-01-19T06:43:07.503Z,102279.09
2024-01-19T06:45:38.965Z,102278.34
2024-01-19T06:48:07.894Z,102303.78
2024-01-19T06:50:36.829Z,102292.97
2024-01-19T06:53:05.349Z,102302.88
2024-01-19T06:55:31.997Z,102314.91
2024-01-19T06:58:00.865Z,102299.88
2024-01-19T07:00:27.729Z,102309.38
2024-01-19T07:02:55.749Z,102303.50
2024-01-19T07:05:22.849Z,102328.03
2024-01-19T07:07:50.046Z,102337.09
2024-01-19T07:10:16.739Z,102315.13
2024-01-19T07:12:43.465Z,102323.56
2024-01-19T07:15:10.432Z,102333.94
2024-01-19T07:17:39.585Z,102289.84
2024-01-19T07:20:07.398Z,102362.84
2024-01-19T07:22:37.769Z,102351.56
2024-01-19T07:25:04.818Z,102357.28
2024-01-19T07:27:31.619Z,102344.47
2024-01-19T07:30:01.000Z,102343.72
2024-01-19T07:32:28.046Z,102336.03
2024-01-19T07:34:55.043Z,102350.19
2024-01-19T07:37:22.078Z,102366.31
2024-01-19T07:39:48.696Z,102379.72
2024-01-19T07:42:17.924Z,102375.19
2024-01-19T07:44:45.106Z,102379.41
2024-01-19T07:47:12.422Z,102388.00
2024-01-19T07:49:39.130Z,102349.13
2024-01-19T07:52:08.785Z,102390.13
2024-01-19T07:54:35.484Z,102362.84
2024-01-19T07:57:02.313Z,102357.28
2024-01-19T07:59:29.019Z,102404.88
2024-01-19T08:01:55.866Z,102402.31
2024-01-19T08:04:22.607Z,102407.28
2024-01-19T08:06:51.693Z,102400.38
2024-01-19T08:09:18.461Z,102385.00
2024-01-19T08:11:45.166Z,102357.25
2024-01-19T08:14:16.408Z,102401.72
2024-01-19T08:16:46.407Z,102285.44
2024-01-19T08:19:13.281Z,102413.47
2024-01-19T08:21:43.750Z,102375.63
2024-01-19T08:24:10.701Z,102424.75
2024-01-19T08:26:39.563Z,102403.03
2024-01-19T08:29:08.473Z,102345.66
2024-01-19T08:31:35.184Z,102414.06
2024-01-19T08:34:01.947Z,102420.38
2024-01-19T08:36:28.601Z,102407.16
2024-01-19T08:38:57.382Z,102419.03
2024-01-19T08:41:26.019Z,102435.34
2024-01-19T08:43:55.190Z,102433.50
2024-01-19T08:46:24.407Z,102436.97
2024-01-19T08:48:51.182Z,102424.94
2024-01-19T08:51:29.688Z,102439.22
2024-01-19T08:53:56.618Z,102435.94
2024-01-19T08:56:27.947Z,102390.88
2024-01-19T08:58:55.357Z,102430.81
2024-01-19T09:01:22.083Z,102431.09
2024-01-19T09:03:48.892Z,102425.97
2024-01-19T09:06:16.308Z,102445.72
2024-01-19T09:08:44.411Z,102437.28
2024-01-19T09:11:12.324Z,102364.06
2024-01-19T09:13:39.728Z,102426.91
2024-01-19T09:16:10.789Z,102436.69
2024-01-19T09:18:42.637Z,102448.28
2024-01-19T09:21:17.049Z,102454.75
2024-01-19T09:23:46.287Z,102453.38
2024-01-19T09:26:20.352Z,102448.56
2024-01-19T09:28:49.803Z,102453.69
2024-01-19T09:31:16.913Z,102438.63
2024-01-19T09:33:44.191Z,102345.84
2024-01-19T09:36:11.254Z,102473.84
2024-01-19T09:38:38.811Z,102472.06
2024-01-19T09:41:24.344Z,102477.94
2024-01-19T09:43:55.659Z,102483.03
2024-01-19T09:46:31.867Z,102483.00
2024-01-19T09:49:13.307Z,102479.50
2024-01-19T09:52:00.375Z,102485.94
2024-01-19T09:54:36.652Z,102469.47
2024-01-19T09:57:06.225Z,102470.00
2024-01-19T09:59:35.925Z,102483.47
2024-01-19T10:02:07.506Z,102483.66
2024-01-19T10:04:34.300Z,102445.44
2024-01-19T10:07:03.006Z,102458.09
2024-01-19T10:09:30.554Z,102496.53
2024-01-19T10:11:57.298Z,102500.44
2024-01-19T10:14:27.432Z,102504.41
2024-01-19T10:16:54.292Z,102484.22
2024-01-19T10:19:23.646Z,102494.72
2024-01-19T10:21:55.358Z,102477.41
2024-01-19T10:24:22.039Z,102487.91
2024-01-19T10:26:57.133Z,102524.66
2024-01-19T10:29:24.553Z,102519.91
2024-01-19T10:31:55.417Z,102524.69
2024-01-19T10:34:24.133Z,102513.44
2024-01-19T10:36:52.833Z,102502.91
2024-01-19T10:39:20.610Z,102516.91
2024-01-19T10:41:49.029Z,102506.69
2024-01-19T10:44:19.176Z,102447.94
2024-01-19T10:46:46.185Z,102499.91
2024-01-19T10:49:15.575Z,102508.47
2024-01-19T10:51:46.101Z,102514.75
2024-01-19T10:54:18.960Z,102523.34
2024-01-19T10:56:46.924Z,102508.88
2024-01-19T10:59:15.819Z,102496.72
2024-01-19T11:01:43.634Z,102451.22
2024-01-19T11:04:15.446Z,102513.22
2024-01-19T11:06:42.277Z,102516.31
2024-01-19T11:09:09.314Z,102518.59
2024-01-19T11:11:55.026Z,102522.66
2024-01-19T11:14:25.602Z,102511.63
2024-01-19T11:16:56.732Z,102514.56
2024-01-19T11:19:24.939Z,102508.53
2024-01-19T11:21:52.211Z,102504.50
2024-01-19T11:24:27.478Z,102483.16
2024-01-19T11:27:07.952Z,102502.09
2024-01-19T11:29:43.068Z,102478.34
2024-01-19T11:32:15.404Z,102473.50
2024-01-19T11:34:52.131Z,102484.53
2024-01-19T11:37:46.909Z,102500.72
2024-01-19T11:40:26.057Z,102494.91
2024-01-19T11:42:53.320Z,102396.22
2024-01-19T11:45:28.817Z,102488.91
2024-01-19T11:47:58.252Z,102485.09
2024-01-19T11:50:43.462Z,102484.09
2024-01-19T11:53:13.090Z,102435.81
2024-01-19T11:55:46.970Z,102472.03
2024-01-19T11:58:30.953Z,102479.63
2024-01-19T12:01:00.459Z,102481.63
2024-01-19T12:03:28.240Z,102481.63
2024-01-19T12:05:57.992Z,102464.50
2024-01-19T12:08:25.169Z,102461.56
2024-01-19T12:11:12.180Z,102435.25
2024-01-19T12:13:48.624Z,102461.50
2024-01-19T12:16:24.253Z,102477.00
2024-01-19T12:18:55.954Z,102476.41
2024-01-19T12:21:23.901Z,102467.88
2024-01-19T12:24:00.295Z,102422.16
2024-01-19T12:27:05.560Z,102459.34
2024-01-19T12:29:36.913Z,102480.59
2024-01-19T12:32:10.900Z,102463.59
2024-01-19T12:34:38.532Z,102456.94
2024-01-19T12:37:06.062Z,102446.25
2024-01-19T12:39:34.989Z,102469.41
2024-01-19T12:42:06.687Z,102449.88
2024-01-19T12:44:33.888Z,102474.06
2024-01-19T12:47:01.370Z,102452.44
2024-01-19T12:49:28.562Z,102475.84
2024-01-19T12:51:55.376Z,102453.34
2024-01-19T12:54:22.183Z,102436.38
2024-01-19T12:56:55.074Z,102433.25
2024-01-19T12:59:23.489Z,102454.38
2024-01-19T13:01:55.037Z,102457.75
2024-01-19T13:04:24.486Z,102464.09
2024-01-19T13:06:52.671Z,102452.91
2024-01-19T13:09:19.463Z,102455.16
2024-01-19T13:11:46.226Z,102461.38
2024-01-19T13:14:15.113Z,102462.03
2024-01-19T13:17:05.078Z,102380.34
2024-01-19T13:19:31.875Z,102455.84
2024-01-19T13:22:06.256Z,102437.94
2024-01-19T13:24:33.280Z,102431.56
2024-01-19T13:27:03.734Z,102451.34
2024-01-19T13:29:33.792Z,102452.13
2024-01-19T13:32:01.114Z,102410.97
2024-01-19T13:34:29.780Z,102425.25
2024-01-19T13:36:57.091Z,102442.56
2024-01-19T13:39:23.844Z,102437.41
2024-01-19T13:41:52.943Z,102391.28
2024-01-19T13:44:19.717Z,102429.97
2024-01-19T13:46:46.511Z,102439.31
2024-01-19T13:49:13.458Z,102428.50
2024-01-19T13:51:40.240Z,102436.59
2024-01-19T13:54:09.339Z,102448.75
2024-01-19T13:56:36.131Z,102443.59
2024-01-19T13:59:02.883Z,102427.28
2024-01-19T14:01:29.907Z,102340.78
2024-01-19T14:03:59.103Z,102440.00
2024-01-19T14:06:25.933Z,102431.19
2024-01-19T14:08:53.852Z,102438.59
2024-01-19T14:11:21.368Z,102427.69
2024-01-19T14:13:49.504Z,102366.53
2024-01-19T14:16:16.389Z,102434.00
2024-01-19T14:18:45.591Z,102404.97
2024-01-19T14:21:14.891Z,102437.28
2024-01-19T14:23:41.635Z,102424.00
2024-01-19T14:26:08.731Z,102408.59
2024-01-19T14:28:35.673Z,102394.44
2024-01-19T14:31:03.613Z,102441.53
2024-01-19T14:33:32.610Z,102444.94
2024-01-19T14:36:00.143Z,102407.56
2024-01-19T14:38:29.310Z,102437.06
2024-01-19T14:40:56.142Z,102417.25
2024-01-19T14:43:23.006Z,102405.44
2024-01-19T14:45:49.832Z,102451.00
2024-01-19T14:48:17.600Z,102456.06
2024-01-19T14:50:47.344Z,102459.44
2024-01-19T14:53:18.172Z,102453.28
2024-01-19T14:55:47.638Z,102460.44
2024-01-19T14:58:14.504Z,102460.91
2024-01-19T15:00:41.223Z,102445.38
2024-01-19T15:03:10.359Z,102433.44
2024-01-19T15:05:39.645Z,102423.31
2024-01-19T15:08:11.374Z,102457.41
2024-01-19T15:10:38.197Z,102455.72
2024-01-19T15:13:08.868Z,102464.28
2024-01-19T15:15:36.683Z,102459.22
2024-01-19T15:18:05.687Z,102472.50
2024-01-19T15:20:32.528Z,102438.84
2024-01-19T15:23:03.914Z,102465.16
2024-01-19T15:25:30.671Z,102459.88
2024-01-19T15:27:59.627Z,102477.88
2024-01-19T15:30:33.386Z,102476.09
2024-01-19T15:33:03.785Z,102454.16
2024-01-19T15:35:30.593Z,102444.13
2024-01-19T15:37:57.324Z,102477.09
2024-01-19T15:40:24.111Z,102475.97
2024-01-19T15:42:50.834Z,102486.75
2024-01-19T15:45:20.151Z,102492.63
2024-01-19T15:47:46.965Z,102444.53
2024-01-19T15:50:20.216Z,102488.09
2024-01-19T15:52:47.195Z,102434.75
2024-01-19T15:55:13.928Z,102492.25
2024-01-19T15:57:42.859Z,102483.56
2024-01-19T16:00:13.046Z,102490.78
2024-01-19T16:02:40.525Z,102467.16
2024-01-19T16:05:11.136Z,102409.69
2024-01-19T16:07:41.521Z,102512.38
2024-01-19T16:10:10.751Z,102517.44
2024-01-19T16:12:37.576Z,102516.41
2024-01-19T16:15:04.913Z,102525.75
2024-01-19T16:17:38.547Z,102520.88
2024-01-19T16:20:09.600Z,102510.97
2024-01-19T16:22:36.530Z,102472.88
2024-01-19T16:25:08.578Z,102527.50
2024-01-19T16:27:36.178Z,102515.31
2024-01-19T16:30:04.255Z,102470.81
2024-01-19T16:32:33.449Z,102473.03
2024-01-19T16:35:00.790Z,102493.66
2024-01-19T16:37:27.809Z,102532.81
2024-01-19T16:39:54.548Z,102508.59
2024-01-19T16:42:21.238Z,102498.88
2024-01-19T16:44:47.857Z,102532.41
2024-01-19T16:47:14.667Z,102495.09
2024-01-19T16:49:41.523Z,102549.63
2024-01-19T16:52:08.591Z,102534.56
2024-01-19T16:54:35.512Z,102508.97
2024-01-19T16:57:08.015Z,102481.56
2024-01-19T16:59:35.299Z,102534.38
2024-01-19T17:02:02.027Z,102556.69
2024-01-19T17:04:29.243Z,102555.53
2024-01-19T17:07:00.850Z,102547.16
2024-01-19T17:09:27.769Z,102552.88
2024-01-19T17:11:54.698Z,102500.06
2024-01-19T17:14:23.629Z,102563.72
2024-01-19T17:16:50.729Z,102531.25
2024-01-19T17:19:19.960Z,102513.66
2024-01-19T17:21:48.089Z,102546.53
2024-01-19T17:24:15.195Z,102550.63
2024-01-19T17:26:44.682Z,102541.78
2024-01-19T17:29:15.217Z,102564.47
2024-01-19T17:31:42.593Z,102580.84
2024-01-19T17:34:11.127Z,102596.47
2024-01-19T17:36:41.678Z,102585.16
2024-01-19T17:39:08.728Z,102601.66
2024-01-19T17:41:39.934Z,102611.47
2024-01-19T17:44:08.595Z,102607.50
2024-01-19T17:46:37.856Z,102550.31
2024-01-19T17:49:07.099Z,102615.75
2024-01-19T17:51:34.035Z,102601.41
2024-01-19T17:54:04.456Z,102495.53
2024-01-19T17:56:32.510Z,102603.97
2024-01-19T17:58:59.348Z,102605.25
2024-01-19T18:01:28.345Z,102604.47
2024-01-19T18:03:55.106Z,102611.06
2024-01-19T18:06:22.007Z,102597.63
2024-01-19T18:08:54.443Z,102622.25
2024-01-19T18:11:21.601Z,102600.56
2024-01-19T18:13:48.717Z,102622.50
2024-01-19T18:16:22.993Z,102584.56
2024-01-19T18:18:51.087Z,102587.66
2024-01-19T18:21:18.083Z,102611.88
2024-01-19T18:23:47.989Z,102628.50
2024-01-19T18:26:15.324Z,102623.72
2024-01-19T18:28:44.531Z,102610.78
2024-01-19T18:31:12.071Z,102615.19
2024-01-19T18:33:42.858Z,102613.59
2024-01-19T18:36:11.349Z,102630.09
2024-01-19T18:38:38.099Z,102602.22
2024-01-19T18:41:05.036Z,102628.00
2024-01-19T18:43:32.002Z,102595.22
2024-01-19T18:46:00.888Z,102628.53
2024-01-19T18:48:29.149Z,102620.50
2024-01-19T18:50:55.969Z,102608.72
2024-01-19T18:53:22.735Z,102633.38
2024-01-19T18:55:54.451Z,102616.94
2024-01-19T18:58:21.587Z,102629.97
2024-01-19T19:00:49.019Z,102613.41
2024-01-19T19:03:18.828Z,102608.56
2024-01-19T19:05:49.976Z,102636.44
2024-01-19T19:08:20.493Z,102629.56
2024-01-19T19:10:49.525Z,102626.06
2024-01-19T19:13:18.772Z,102654.97
2024-01-19T19:15:45.633Z,102665.25
2024-01-19T19:18:17.055Z,102630.75
2024-01-19T19:20:47.334Z,102642.06
2024-01-19T19:23:14.124Z,102661.69
2024-01-19T19:25:41.134Z,102669.13
2024-01-19T19:28:07.826Z,102670.66
2024-01-19T19:30:34.778Z,102644.44
2024-01-19T19:33:06.290Z,102623.91
2024-01-19T19:35:33.034Z,102653.50
2024-01-19T19:37:59.964Z,102659.19
2024-01-19T19:40:26.703Z,102621.00
2024-01-19T19:42:53.394Z,102674.13
2024-01-19T19:45:23.226Z,102655.47
2024-01-19T19:47:51.344Z,102672.03
2024-01-19T19:50:18.390Z,102666.47
2024-01-19T19:52:45.119Z,102682.19
2024-01-19T19:55:11.841Z,102662.59
2024-01-19T19:57:38.968Z,102648.53
2024-01-19T20:00:06.245Z,102671.47
2024-01-19T20:02:34.185Z,102554.69
2024-01-19T20:05:01.014Z,102654.44
2024-01-19T20:07:27.720Z,102587.56
2024-01-19T20:09:54.432Z,102657.53
2024-01-19T20:12:21.209Z,102649.59
2024-01-19T20:14:48.289Z,102633.88
2024-01-19T20:17:17.582Z,102669.50
2024-01-19T20:19:47.769Z,102661.63
2024-01-19T20:22:19.122Z,102661.06
2024-01-19T20:24:49.043Z,102637.38
2024-01-19T20:27:19.139Z,102623.81
2024-01-19T20:29:46.113Z,102661.81
2024-01-19T20:32:12.978Z,102667.69
2024-01-19T20:34:42.536Z,102628.09
2024-01-19T20:37:18.941Z,102650.00
2024-01-19T20:39:48.304Z,102654.97
2024-01-19T20:42:14.989Z,102620.00
2024-01-19T20:44:41.762Z,102597.69
2024-01-19T20:47:08.549Z,102622.72
2024-01-19T20:49:35.336Z,102574.63
2024-01-19T20:52:01.999Z,102661.47
2024-01-19T20:54:33.683Z,102671.75
2024-01-19T20:57:00.542Z,102674.47
2024-01-19T20:59:27.357Z,102656.94
2024-01-19T21:01:56.603Z,102666.59
2024-01-19T21:04:25.794Z,102672.06
2024-01-19T21:06:52.637Z,102642.53
2024-01-19T21:09:20.436Z,102671.63
2024-01-19T21:11:48.393Z,102617.34
2024-01-19T21:14:15.364Z,102684.94
2024-01-19T21:16:45.049Z,102617.69
2024-01-19T21:19:12.528Z,102680.16
2024-01-19T21:21:39.488Z,102650.13
2024-01-19T21:24:06.488Z,102641.53
2024-01-19T21:26:33.288Z,102675.06
2024-01-19T21:29:00.129Z,102682.88
2024-01-19T21:31:29.802Z,102655.00
2024-01-19T21:33:56.471Z,102677.16
2024-01-19T21:36:23.460Z,102652.44
2024-01-19T21:38:53.267Z,102687.56
2024-01-19T21:41:20.229Z,102679.72
2024-01-19T21:43:47.818Z,102572.47
2024-01-19T21:46:16.399Z,102590.59
2024-01-19T21:48:43.612Z,102659.81
2024-01-19T21:51:11.119Z,102686.81
2024-01-19T21:53:39.447Z,102689.38
2024-01-19T21:56:08.766Z,102670.97
2024-01-19T21:58:37.730Z,102693.59
2024-01-19T22:01:05.436Z,102673.22
2024-01-19T22:03:32.233Z,102588.16
2024-01-19T22:06:01.498Z,102669.63
2024-01-19T22:08:31.298Z,102702.22
2024-01-19T22:10:58.276Z,102688.94
2024-01-19T22:13:27.344Z,102693.94
2024-01-19T22:15:53.989Z,102666.47
2024-01-19T22:18:21.720Z,102673.28
2024-01-19T22:20:51.057Z,102691.53
2024-01-19T22:23:19.998Z,102603.13
2024-01-19T22:25:46.779Z,102687.16
2024-01-19T22:28:13.628Z,102679.00
2024-01-19T22:30:40.783Z,102686.25
2024-01-19T22:33:10.583Z,102670.25
2024-01-19T22:35:37.362Z,102677.06
2024-01-19T22:38:05.352Z,102700.00
2024-01-19T22:40:32.165Z,102700.75
2024-01-19T22:42:59.106Z,102701.38
2024-01-19T22:45:25.957Z,102668.78
2024-01-19T22:47:52.707Z,102673.91
2024-01-19T22:50:21.732Z,102622.16
2024-01-19T22:52:50.831Z,102691.41
2024-01-19T22:55:20.160Z,102698.22
2024-01-19T22:57:48.275Z,102683.72
2024-01-19T23:00:20.536Z,102714.81
2024-01-19T23:02:47.455Z,102729.94
2024-01-19T23:05:14.318Z,102720.22
2024-01-19T23:07:41.949Z,102732.03
2024-01-19T23:10:10.150Z,102711.78
2024-01-19T23:12:36.879Z,102743.94
2024-01-19T23:15:06.803Z,102736.88
2024-01-19T23:17:33.596Z,102727.97
2024-01-19T23:20:00.541Z,102680.25
2024-01-19T23:22:27.923Z,102719.94
2024-01-19T23:24:54.591Z,102725.41
2024-01-19T23:27:23.570Z,102722.19
2024-01-19T23:29:50.267Z,102718.56
2024-01-19T23:32:17.584Z,102711.97
2024-01-19T23:34:44.495Z,102724.75
2024-01-19T23:37:11.740Z,102729.91
2024-01-19T23:39:40.684Z,102720.09
2024-01-19T23:42:07.469Z,102722.19
2024-01-19T23:44:34.195Z,102704.97
2024-01-19T23:47:00.961Z,102714.66
2024-01-19T23:49:30.851Z,102684.19
2024-01-19T23:51:59.416Z,102730.69
2024-01-19T23:54:26.072Z,102722.22
2024-01-19T23:56:55.048Z,102707.56
2024-01-19T23:59:21.809Z,102726.44
